createdAt,value
2023-03-13T00:01:27.162Z,0.55
2023-03-13T00:05:27.274Z,0.56
2023-03-13T00:09:27.333Z,0.55
2023-03-13T00:13:27.473Z,0.55
2023-03-13T00:17:27.511Z,0.55
2023-03-13T00:21:27.640Z,0.56
2023-03-13T00:25:27.688Z,0.54
2023-03-13T00:29:27.797Z,0.56
2023-03-13T00:33:27.893Z,0.56
2023-03-13T00:37:27.969Z,0.55
2023-03-13T00:41:28.054Z,0.56
2023-03-13T00:45:28.154Z,0.55
2023-03-13T00:49:28.191Z,0.54
2023-03-13T00:53:28.254Z,0.55
2023-03-13T00:57:28.394Z,0.55
2023-03-13T01:01:28.506Z,0.56
2023-03-13T01:05:28.570Z,0.56
2023-03-13T01:09:28.677Z,0.55
2023-03-13T01:13:28.765Z,0.54
2023-03-13T01:17:28.872Z,0.54
2023-03-13T01:21:28.969Z,0.55
2023-03-13T01:25:29.054Z,0.55
2023-03-13T01:29:29.194Z,0.55
2023-03-13T01:33:29.319Z,0.55
2023-03-13T01:37:29.344Z,0.56
2023-03-13T01:41:29.486Z,0.54
2023-03-13T01:45:29.565Z,0.54
2023-03-13T01:49:29.654Z,0.53
2023-03-13T01:53:29.750Z,0.54
2023-03-13T01:57:29.824Z,0.54
2023-03-13T02:01:29.956Z,0.54
2023-03-13T02:05:30.044Z,0.54
2023-03-13T02:09:30.164Z,0.53
2023-03-13T02:13:30.285Z,0.54
2023-03-13T02:17:30.411Z,0.53
2023-03-13T02:21:30.482Z,0.52
2023-03-13T02:25:30.619Z,0.52
2023-03-13T02:29:30.701Z,0.52
2023-03-13T02:33:30.854Z,0.52
2023-03-13T02:37:31.015Z,0.51
2023-03-13T02:41:31.122Z,0.52
2023-03-13T02:45:31.196Z,0.52
2023-03-13T02:49:31.364Z,0.52
2023-03-13T02:53:31.458Z,0.51
2023-03-13T02:57:31.605Z,0.51
2023-03-13T03:01:31.699Z,0.50
2023-03-13T03:05:31.825Z,0.52
2023-03-13T03:09:31.921Z,0.52
2023-03-13T03:13:32.006Z,0.50
2023-03-13T03:17:32.151Z,0.52
2023-03-13T03:21:32.245Z,0.52
2023-03-13T03:25:32.363Z,0.53
2023-03-13T03:29:32.446Z,0.51
2023-03-13T03:33:32.573Z,0.52
2023-03-13T03:37:32.686Z,0.50
2023-03-13T03:41:32.842Z,0.51
2023-03-13T03:45:33.000Z,0.51
2023-03-13T03:49:33.135Z,0.52
2023-03-13T03:53:33.294Z,0.51
2023-03-13T03:57:33.416Z,0.50
2023-03-13T04:01:33.562Z,0.51
2023-03-13T04:05:33.725Z,0.52
2023-03-13T04:09:33.881Z,0.51
2023-03-13T04:13:34.019Z,0.52
2023-03-13T04:17:34.164Z,0.53
2023-03-13T04:21:34.311Z,0.51
2023-03-13T04:25:34.399Z,0.52
2023-03-13T04:29:34.518Z,0.50
2023-03-13T04:33:34.692Z,0.50
2023-03-13T04:37:34.835Z,0.51
2023-03-13T04:41:35.001Z,0.52
2023-03-13T04:45:35.138Z,0.52
2023-03-13T04:49:35.273Z,0.51
2023-03-13T04:53:35.470Z,0.51
2023-03-13T04:57:35.609Z,0.52
2023-03-13T05:01:35.792Z,0.53
2023-03-13T05:05:35.907Z,0.52
2023-03-13T05:09:36.090Z,0.52
2023-03-13T05:13:36.225Z,0.51
2023-03-13T05:17:36.421Z,0.52
2023-03-13T05:21:36.540Z,0.52
2023-03-13T05:25:36.704Z,0.51
2023-03-13T05:29:36.856Z,0.52
2023-03-13T05:33:36.998Z,0.53
2023-03-13T05:37:38.980Z,0.52
2023-03-13T05:41:37.142Z,0.52
2023-03-13T05:45:37.106Z,0.52
2023-03-13T05:49:37.060Z,0.53
2023-03-13T05:53:37.036Z,0.52
2023-03-13T05:57:36.989Z,0.52
2023-03-13T06:01:36.939Z,0.53
2023-03-13T06:05:36.900Z,0.54
2023-03-13T06:09:36.882Z,0.53
2023-03-13T06:13:36.851Z,0.53
2023-03-13T06:17:36.981Z,0.53
2023-03-13T06:21:37.108Z,0.53
2023-03-13T06:25:37.249Z,0.52
2023-03-13T06:29:37.381Z,0.54
2023-03-13T06:33:37.519Z,0.52
2023-03-13T06:37:37.656Z,0.57
2023-03-13T06:41:38.183Z,0.58
2023-03-13T06:45:38.135Z,0.59
2023-03-13T06:49:37.914Z,0.66
2023-03-13T06:53:38.150Z,0.76
2023-03-13T06:57:38.149Z,1.18
2023-03-13T07:01:38.175Z,1.13
2023-03-13T07:05:38.049Z,1.16
2023-03-13T07:09:38.081Z,1.27
2023-03-13T07:13:38.177Z,1.47
2023-03-13T07:17:38.224Z,1.64
2023-03-13T07:21:38.185Z,1.86
2023-03-13T07:25:38.065Z,2.02
2023-03-13T07:29:38.180Z,2.21
2023-03-13T07:33:38.051Z,2.30
2023-03-13T07:37:37.989Z,2.46
2023-03-13T07:41:39.082Z,2.61
2023-03-13T07:45:38.071Z,2.80
2023-03-13T07:49:38.200Z,2.94
2023-03-13T07:53:38.299Z,3.03
2023-03-13T07:57:38.201Z,3.06
2023-03-13T08:01:38.027Z,3.04
2023-03-13T08:05:38.119Z,3.04
2023-03-13T08:09:38.711Z,2.92
2023-03-13T08:13:38.296Z,2.94
2023-03-13T08:17:38.415Z,2.97
2023-03-13T08:21:38.684Z,2.96
2023-03-13T08:25:38.596Z,2.85
2023-03-13T08:29:38.637Z,2.84
2023-03-13T08:33:39.196Z,2.81
2023-03-13T08:37:38.758Z,2.74
2023-03-13T08:41:39.200Z,2.70
2023-03-13T08:45:39.831Z,2.20
2023-03-13T08:49:39.219Z,2.18
2023-03-13T08:53:39.024Z,2.47
2023-03-13T08:57:39.232Z,2.58
2023-03-13T09:01:39.055Z,2.88
2023-03-13T09:05:54.901Z,3.07
2023-03-13T09:09:40.021Z,3.26
2023-03-13T09:13:39.030Z,3.53
2023-03-13T09:17:39.237Z,4.01
2023-03-13T09:21:39.735Z,4.52
2023-03-13T09:25:39.581Z,4.86
2023-03-13T09:29:39.647Z,5.12
2023-03-13T09:33:40.224Z,5.59
2023-03-13T09:37:40.205Z,5.65
2023-03-13T09:41:40.220Z,5.69
2023-03-13T09:45:40.003Z,5.63
2023-03-13T09:49:40.236Z,5.87
2023-03-13T09:53:40.246Z,5.64
2023-03-13T09:57:40.246Z,5.54
2023-03-13T10:01:40.365Z,5.58
2023-03-13T10:05:40.746Z,5.00
2023-03-13T10:09:40.753Z,4.68
2023-03-13T10:13:40.748Z,4.47
2023-03-13T10:17:40.920Z,4.08
2023-03-13T10:21:41.223Z,3.69
2023-03-13T10:25:41.840Z,3.59
2023-03-13T10:29:41.513Z,3.10
2023-03-13T10:33:41.753Z,3.03
2023-03-13T10:37:41.454Z,2.98
2023-03-13T10:41:41.736Z,2.71
2023-03-13T10:45:41.768Z,1.99
2023-03-13T10:49:41.769Z,1.25
2023-03-13T10:53:41.774Z,1.51
2023-03-13T10:57:41.304Z,1.67
2023-03-13T11:01:41.263Z,1.85
2023-03-13T11:05:41.226Z,2.12
2023-03-13T11:09:41.250Z,2.15
2023-03-13T11:13:41.154Z,2.45
2023-03-13T11:17:41.274Z,2.63
2023-03-13T11:21:41.096Z,2.70
2023-03-13T11:25:41.259Z,2.98
2023-03-13T11:29:41.342Z,3.07
2023-03-13T11:33:41.034Z,3.31
2023-03-13T11:37:41.271Z,3.26
2023-03-13T11:41:41.377Z,3.09
2023-03-13T11:45:41.324Z,1.53
2023-03-13T11:49:41.039Z,1.41
2023-03-13T11:53:40.852Z,1.32
2023-03-13T11:57:40.815Z,0.75
2023-03-13T12:01:40.794Z,0.41
2023-03-13T12:05:40.781Z,0.81
2023-03-13T12:09:40.735Z,1.13
2023-03-13T12:13:40.710Z,1.35
2023-03-13T12:17:40.832Z,1.58
2023-03-13T12:21:40.637Z,1.80
2023-03-13T12:25:40.714Z,2.01
2023-03-13T12:29:41.298Z,2.23
2023-03-13T12:33:41.318Z,0.56
2023-03-13T12:37:41.309Z,0.62
2023-03-13T12:41:41.296Z,1.30
2023-03-13T12:45:41.335Z,1.81
2023-03-13T12:49:41.165Z,2.41
2023-03-13T12:53:41.260Z,3.07
2023-03-13T12:57:41.407Z,3.38
2023-03-13T13:01:41.108Z,3.93
2023-03-13T13:05:41.043Z,4.71
2023-03-13T13:09:41.318Z,5.23
2023-03-13T13:13:40.993Z,6.10
2023-03-13T13:17:40.972Z,7.03
2023-03-13T13:21:40.881Z,7.66
2023-03-13T13:25:41.301Z,8.31
2023-03-13T13:29:40.845Z,9.21
2023-03-13T13:33:40.806Z,9.23
2023-03-13T13:37:40.763Z,9.22
2023-03-13T13:41:40.835Z,9.61
2023-03-13T13:45:40.688Z,10.31
2023-03-13T13:49:40.701Z,10.07
2023-03-13T13:53:40.633Z,9.34
2023-03-13T13:57:40.712Z,8.49
2023-03-13T14:01:40.878Z,7.96
2023-03-13T14:05:40.889Z,7.25
2023-03-13T14:09:40.978Z,6.62
2023-03-13T14:13:41.094Z,6.12
2023-03-13T14:17:41.172Z,5.70
2023-03-13T14:21:41.262Z,5.41
2023-03-13T14:25:41.368Z,5.20
2023-03-13T14:29:41.454Z,4.79
2023-03-13T14:33:41.725Z,4.58
2023-03-13T14:37:41.724Z,4.36
2023-03-13T14:41:41.855Z,4.11
2023-03-13T14:45:41.998Z,3.96
2023-03-13T14:49:42.166Z,3.79
2023-03-13T14:53:42.304Z,3.59
2023-03-13T14:57:42.473Z,3.42
2023-03-13T15:01:42.573Z,3.44
2023-03-13T15:05:42.721Z,3.30
2023-03-13T15:09:42.866Z,3.31
2023-03-13T15:13:43.376Z,3.27
2023-03-13T15:17:43.123Z,3.13
2023-03-13T15:21:43.292Z,3.03
2023-03-13T15:25:43.331Z,2.98
2023-03-13T15:29:43.384Z,2.85
2023-03-13T15:33:43.493Z,2.80
2023-03-13T15:37:43.593Z,2.68
2023-03-13T15:41:43.725Z,2.54
2023-03-13T15:45:43.792Z,2.41
2023-03-13T15:49:43.750Z,2.39
2023-03-13T15:53:43.787Z,2.29
2023-03-13T15:57:43.940Z,2.24
2023-03-13T16:01:44.081Z,2.12
2023-03-13T16:05:44.172Z,2.05
2023-03-13T16:09:44.456Z,1.97
2023-03-13T16:13:44.456Z,1.88
2023-03-13T16:17:44.569Z,1.85
2023-03-13T16:21:44.695Z,1.72
2023-03-13T16:25:44.862Z,1.74
2023-03-13T16:29:45.390Z,1.53
2023-03-13T16:33:45.032Z,2.14
2023-03-13T16:37:45.109Z,1.89
2023-03-13T16:41:45.355Z,1.98
2023-03-13T16:45:45.423Z,1.71
2023-03-13T16:49:47.433Z,1.38
2023-03-13T16:53:45.662Z,1.30
2023-03-13T16:57:45.740Z,1.22
2023-03-13T17:01:45.918Z,1.21
2023-03-13T17:05:46.417Z,1.19
2023-03-13T17:09:46.064Z,1.19
2023-03-13T17:13:46.130Z,1.13
2023-03-13T17:17:46.271Z,1.18
2023-03-13T17:21:45.973Z,1.13
2023-03-13T17:25:45.958Z,1.15
2023-03-13T17:29:45.917Z,1.11
2023-03-13T17:33:45.874Z,1.11
2023-03-13T17:37:45.849Z,1.09
2023-03-13T17:41:45.796Z,1.13
2023-03-13T17:45:45.768Z,1.13
2023-03-13T17:49:45.733Z,1.11
2023-03-13T17:53:45.690Z,1.09
2023-03-13T17:57:45.674Z,1.05
2023-03-13T18:01:45.771Z,1.05
2023-03-13T18:05:45.608Z,1.07
2023-03-13T18:09:45.612Z,1.04
2023-03-13T18:13:45.811Z,1.01
2023-03-13T18:17:46.005Z,1.02
2023-03-13T18:21:46.168Z,1.02
2023-03-13T18:25:46.383Z,1.01
2023-03-13T18:29:46.336Z,0.99
2023-03-13T18:33:47.827Z,0.95
2023-03-13T18:37:46.284Z,0.97
2023-03-13T18:41:46.246Z,0.95
2023-03-13T18:45:46.333Z,0.95
2023-03-13T18:49:46.336Z,0.94
2023-03-13T18:53:46.245Z,0.95
2023-03-13T18:57:46.159Z,0.90
2023-03-13T19:01:46.189Z,0.91
2023-03-13T19:05:46.144Z,0.91
2023-03-13T19:09:47.159Z,0.89
2023-03-13T19:13:46.083Z,0.90
2023-03-13T19:17:46.002Z,0.85
2023-03-13T19:21:45.955Z,0.87
2023-03-13T19:25:45.982Z,0.89
2023-03-13T19:29:46.180Z,0.87
2023-03-13T19:33:46.330Z,0.86
2023-03-13T19:37:46.527Z,0.85
2023-03-13T19:41:46.692Z,0.84
2023-03-13T19:45:46.818Z,0.86
2023-03-13T19:49:46.841Z,0.84
2023-03-13T19:53:47.011Z,0.86
2023-03-13T19:57:46.918Z,0.85
2023-03-13T20:01:47.075Z,0.86
2023-03-13T20:05:46.830Z,0.82
2023-03-13T20:09:46.822Z,0.83
2023-03-13T20:13:46.773Z,0.84
2023-03-13T20:17:46.791Z,0.84
2023-03-13T20:21:46.779Z,0.77
2023-03-13T20:25:46.885Z,0.77
2023-03-13T20:29:46.757Z,0.80
2023-03-13T20:33:46.790Z,0.71
2023-03-13T20:37:46.782Z,0.76
2023-03-13T20:41:46.817Z,0.77
2023-03-13T20:45:46.833Z,0.77
2023-03-13T20:49:46.854Z,0.79
2023-03-13T20:53:46.876Z,0.77
2023-03-13T20:57:46.895Z,0.76
2023-03-13T21:01:46.953Z,0.74
2023-03-13T21:05:46.947Z,0.78
2023-03-13T21:09:46.982Z,0.76
2023-03-13T21:13:47.056Z,0.79
2023-03-13T21:17:47.065Z,0.70
2023-03-13T21:21:47.812Z,0.74
2023-03-13T21:25:47.103Z,0.75
2023-03-13T21:29:47.313Z,0.75
2023-03-13T21:33:47.225Z,0.73
2023-03-13T21:37:47.224Z,0.74
2023-03-13T21:41:47.263Z,0.72
2023-03-13T21:45:47.408Z,0.68
2023-03-13T21:49:47.354Z,0.70
2023-03-13T21:53:47.412Z,0.72
2023-03-13T21:57:47.537Z,0.73
2023-03-13T22:01:47.569Z,0.74
2023-03-13T22:05:47.652Z,0.73
2023-03-13T22:09:47.742Z,0.73
2023-03-13T22:13:47.829Z,0.72
2023-03-13T22:17:47.916Z,0.69
2023-03-13T22:21:48.031Z,0.70
2023-03-13T22:25:48.180Z,0.72
2023-03-13T22:29:48.231Z,0.70
2023-03-13T22:33:48.315Z,0.70
2023-03-13T22:37:48.404Z,0.71
2023-03-13T22:41:48.543Z,0.69
2023-03-13T22:45:48.631Z,0.68
2023-03-13T22:49:48.761Z,0.71
2023-03-13T22:53:48.870Z,0.66
2023-03-13T22:57:48.946Z,0.69
2023-03-13T23:01:49.076Z,0.69
2023-03-13T23:05:49.143Z,0.68
2023-03-13T23:09:49.246Z,0.68
2023-03-13T23:13:49.374Z,0.70
2023-03-13T23:17:49.497Z,0.62
2023-03-13T23:21:49.586Z,0.66
2023-03-13T23:25:49.734Z,0.65
2023-03-13T23:29:49.887Z,0.66
2023-03-13T23:33:50.003Z,0.65
2023-03-13T23:37:50.102Z,0.63
2023-03-13T23:41:50.222Z,0.60
2023-03-13T23:45:50.330Z,0.62
2023-03-13T23:49:50.453Z,0.62
2023-03-13T23:53:50.637Z,0.64
2023-03-13T23:57:50.775Z,0.64
